createdAt,value
2018-04-28T00:01:15.875Z,98726.88
2018-04-28T00:03:45.778Z,98718.94
2018-04-28T00:06:15.795Z,98720.17
2018-04-28T00:08:45.139Z,98720.78
2018-04-28T00:11:14.222Z,98723.05
2018-04-28T00:13:43.958Z,98715.52
2018-04-28T00:16:15.231Z,98726.75
2018-04-28T00:18:46.168Z,98736.03
2018-04-28T00:21:16.157Z,98744.59
2018-04-28T00:23:51.448Z,98749.03
2018-04-28T00:26:20.860Z,98749.13
2018-04-28T00:28:51.512Z,98751.90
2018-04-28T00:31:36.488Z,98737.70
2018-04-28T00:34:11.501Z,98743.47
2018-04-28T00:39:40.385Z,98745.42
2018-04-28T00:42:10.801Z,98746.34
2018-04-28T00:44:41.711Z,98751.38
2018-04-28T00:47:18.008Z,98750.14
2018-04-28T00:49:53.827Z,98748.06
2018-04-28T00:52:24.113Z,98745.98
2018-04-28T00:54:57.831Z,98748.77
2018-04-28T00:57:57.294Z,98752.91
2018-04-28T01:03:46.288Z,98765.58
2018-04-28T01:06:16.120Z,98764.33
2018-04-28T01:08:46.280Z,98766.37
2018-04-28T01:11:18.334Z,98763.18
2018-04-28T01:13:51.560Z,98763.18
2018-04-28T01:16:22.175Z,98768.54
2018-04-28T01:21:50.995Z,98768.64
2018-04-28T01:24:26.027Z,98771.31
2018-04-28T01:30:12.860Z,98795.12
2018-04-28T01:36:00.201Z,98799.41
2018-04-28T01:38:40.090Z,98804.45
2018-04-28T01:41:20.477Z,98809.39
2018-04-28T01:43:50.996Z,98808.46
2018-04-28T03:43:33.485Z,98893.21
2018-04-28T03:54:50.086Z,98877.14
2018-04-28T06:18:34.295Z,98712.29
2018-04-28T06:21:04.072Z,98705.27
2018-04-28T06:23:33.632Z,98694.27
2018-04-28T06:26:03.617Z,98688.41
2018-04-28T06:28:33.322Z,98693.13
2018-04-28T06:31:02.524Z,98684.91
2018-04-28T06:33:32.029Z,98686.75
2018-04-28T06:36:01.733Z,98685.83
2018-04-28T06:38:31.268Z,98692.94
2018-04-28T06:41:01.430Z,98686.44
2018-04-28T06:43:30.979Z,98687.27
2018-04-28T06:46:01.293Z,98688.83
2018-04-28T06:48:31.074Z,98681.52
2018-04-28T06:51:00.705Z,98677.09
2018-04-28T06:53:30.351Z,98669.79
2018-04-28T06:55:59.897Z,98667.02
2018-04-28T06:58:29.565Z,98658.87
2018-04-28T07:00:58.803Z,98653.94
2018-04-28T07:03:28.453Z,98653.43
2018-04-28T07:05:58.249Z,98649.50
2018-04-28T07:08:27.836Z,98647.66
2018-04-28T07:10:57.115Z,98644.84
2018-04-28T07:13:26.156Z,98645.17
2018-04-28T07:15:56.023Z,98642.39
2018-04-28T07:18:25.625Z,98637.86
2018-04-28T07:20:55.982Z,98636.02
2018-04-28T07:23:25.082Z,98630.56
2018-04-28T07:25:54.526Z,98624.78
2018-04-28T07:28:24.613Z,98626.03
2018-04-28T07:30:54.679Z,98626.34
2018-04-28T07:33:24.203Z,98622.74
2018-04-28T07:35:54.397Z,98628.84
2018-04-28T07:38:23.914Z,98628.42
2018-04-28T07:40:52.820Z,98626.16
2018-04-28T07:43:22.606Z,98618.53
2018-04-28T07:45:51.698Z,98614.80
2018-04-28T07:48:22.728Z,98604.81
2018-04-28T07:50:52.148Z,98606.98
2018-04-28T07:53:21.236Z,98598.84
2018-04-28T07:55:51.033Z,98589.38
2018-04-28T07:58:20.133Z,98581.84
2018-04-28T08:00:49.357Z,98569.05
2018-04-28T08:03:19.020Z,98563.19
2018-04-28T08:05:49.147Z,98555.66
2018-04-28T08:08:18.653Z,98549.69
2018-04-28T08:10:48.018Z,98545.06
2018-04-28T08:13:17.794Z,98537.34
2018-04-28T08:15:47.807Z,98542.09
2018-04-28T08:18:18.089Z,98535.67
2018-04-28T08:20:48.111Z,98537.43
2018-04-28T08:23:18.077Z,98529.30
2018-04-28T08:25:47.977Z,98530.13
2018-04-28T08:28:17.687Z,98527.76
2018-04-28T08:30:47.179Z,98523.73
2018-04-28T08:33:16.072Z,98522.71
2018-04-28T08:35:45.229Z,98517.67
2018-04-28T08:38:14.388Z,98521.08
2018-04-28T08:40:43.051Z,98516.52
2018-04-28T08:43:12.543Z,98507.55
2018-04-28T08:45:41.924Z,98504.36
2018-04-28T08:48:12.453Z,98501.58
2018-04-28T08:50:42.028Z,98501.07
2018-04-28T08:53:11.585Z,98492.93
2018-04-28T08:55:40.611Z,98488.40
2018-04-28T08:58:09.730Z,98482.94
2018-04-28T09:03:39.534Z,98473.67
2018-04-28T09:06:08.441Z,98465.09
2018-04-28T09:08:37.496Z,98464.48
2018-04-28T09:11:07.125Z,98466.23
2018-04-28T09:13:36.433Z,98457.17
2018-04-28T09:16:05.924Z,98451.70
2018-04-28T09:18:35.829Z,98451.30
2018-04-28T09:21:04.811Z,98448.93
2018-04-28T09:23:33.886Z,98442.12
2018-04-28T09:26:03.410Z,98437.12
2018-04-28T09:28:32.447Z,98431.75
2018-04-28T09:31:01.614Z,98432.07
2018-04-28T09:33:31.103Z,98430.19
2018-04-28T09:35:59.738Z,98428.84
2018-04-28T09:38:29.219Z,98422.05
2018-04-28T09:40:58.883Z,98423.70
2018-04-28T09:43:28.276Z,98417.41
2018-04-28T09:45:57.575Z,98413.70
2018-04-28T09:48:26.843Z,98410.51
2018-04-28T09:50:57.888Z,98407.31
2018-04-28T09:53:27.570Z,98401.85
2018-04-28T09:55:57.258Z,98400.73
2018-04-28T09:58:26.690Z,98391.76
2018-04-28T10:00:57.172Z,98388.44
2018-04-28T10:03:31.677Z,98386.48
2018-04-28T10:06:00.718Z,98379.67
2018-04-28T10:08:30.234Z,98385.35
2018-04-28T10:10:59.909Z,98377.72
2018-04-28T10:13:30.216Z,98372.16
2018-04-28T10:15:59.794Z,98371.55
2018-04-28T10:18:28.693Z,98362.03
2018-04-28T10:20:58.311Z,98353.98
2018-04-28T10:23:28.468Z,98358.22
2018-04-28T10:25:57.955Z,98355.44
2018-04-28T10:28:27.866Z,98353.58
2018-04-28T10:30:57.067Z,98354.82
2018-04-28T10:33:27.263Z,98348.94
2018-04-28T10:35:56.942Z,98349.67
2018-04-28T10:38:25.999Z,98337.88
2018-04-28T10:40:55.695Z,98331.59
2018-04-28T10:43:24.662Z,98331.91
2018-04-28T10:45:54.108Z,98331.80
2018-04-28T10:48:23.900Z,98330.78
2018-04-28T10:50:53.598Z,98328.09
2018-04-28T10:53:23.168Z,98325.20
2018-04-28T10:55:52.032Z,98318.92
2018-04-28T10:58:22.054Z,98317.37
2018-04-28T11:00:51.292Z,98321.30
2018-04-28T11:03:21.039Z,98329.11
2018-04-28T11:05:50.044Z,98324.57
2018-04-28T11:08:18.953Z,98327.15
2018-04-28T11:10:49.648Z,98328.39
2018-04-28T11:13:19.300Z,98313.23
2018-04-28T11:15:48.689Z,98318.48
2018-04-28T11:18:18.168Z,98317.97
2018-04-28T11:20:49.212Z,98319.22
2018-04-28T11:23:18.798Z,98313.33
2018-04-28T11:25:48.519Z,98314.85
2018-04-28T11:28:17.724Z,98314.34
2018-04-28T11:30:46.728Z,98302.99
2018-04-28T11:33:16.240Z,98304.64
2018-04-28T11:35:45.616Z,98310.84
2018-04-28T11:38:14.956Z,98303.61
2018-04-28T11:40:45.214Z,98307.95
2018-04-28T11:43:14.509Z,98304.23
2018-04-28T11:45:44.311Z,98303.59
2018-04-28T11:48:13.544Z,98297.70
2018-04-28T11:50:42.794Z,98301.31
2018-04-28T11:53:12.694Z,98301.53
2018-04-28T11:55:42.112Z,98294.41
2018-04-28T11:58:11.059Z,98301.84
2018-04-28T12:00:40.057Z,98305.03
2018-04-28T12:03:08.997Z,98307.13
2018-04-28T12:05:38.260Z,98309.81
2018-04-28T12:08:07.633Z,98309.81
2018-04-28T12:10:37.944Z,98301.25
2018-04-28T12:13:06.998Z,98303.83
2018-04-28T12:15:36.271Z,98301.15
2018-04-28T12:18:05.693Z,98304.66
2018-04-28T12:20:35.490Z,98308.98
2018-04-28T12:23:05.039Z,98306.72
2018-04-28T12:25:33.930Z,98302.70
2018-04-28T12:28:03.096Z,98302.16
2018-04-28T12:30:32.807Z,98300.19
2018-04-28T12:33:02.429Z,98305.45
2018-04-28T12:35:31.834Z,98306.80
2018-04-28T12:38:01.512Z,98304.94
2018-04-28T12:40:30.977Z,98304.02
2018-04-28T12:43:00.320Z,98307.94
2018-04-28T12:45:29.817Z,98306.08
2018-04-28T12:47:58.827Z,98309.69
2018-04-28T12:50:28.265Z,98312.78
2018-04-28T12:52:58.006Z,98305.56
2018-04-28T12:55:27.453Z,98305.05
2018-04-28T12:57:56.917Z,98313.20
2018-04-28T13:00:26.278Z,98317.33
2018-04-28T13:02:55.505Z,98317.33
2018-04-28T13:05:25.222Z,98311.23
2018-04-28T13:07:54.486Z,98321.04
2018-04-28T13:10:23.772Z,98321.97
2018-04-28T13:12:52.811Z,98325.34
2018-04-28T13:15:22.071Z,98328.44
2018-04-28T13:17:51.586Z,98324.83
2018-04-28T13:20:21.136Z,98325.76
2018-04-28T13:22:50.720Z,98328.03
2018-04-28T13:25:21.292Z,98326.58
2018-04-28T13:27:50.277Z,98329.98
2018-04-28T13:30:19.281Z,98334.94
2018-04-28T13:32:48.894Z,98337.63
2018-04-28T13:35:17.609Z,98347.94
2018-04-28T13:37:46.664Z,98343.41
2018-04-28T13:40:15.851Z,98349.18
2018-04-28T13:42:44.992Z,98345.26
2018-04-28T13:45:15.243Z,98355.89
2018-04-28T13:47:44.988Z,98359.91
2018-04-28T13:50:14.143Z,98364.45
2018-04-28T13:52:43.280Z,98371.47
2018-04-28T13:55:12.521Z,98374.98
2018-04-28T13:57:41.905Z,98380.66
2018-04-28T14:00:11.515Z,98391.70
2018-04-28T14:02:41.191Z,98397.48
2018-04-28T14:05:10.690Z,98413.98
2018-04-28T14:07:40.600Z,98421.42
2018-04-28T14:10:10.175Z,98424.00
2018-04-28T14:12:39.822Z,98428.34
2018-04-28T14:15:09.147Z,98432.27
2018-04-28T14:17:38.949Z,98435.36
2018-04-28T14:20:08.470Z,98449.06
2018-04-28T14:22:37.985Z,98441.42
2018-04-28T14:25:08.427Z,98449.89
2018-04-28T14:27:38.409Z,98456.08
2018-04-28T14:30:07.112Z,98456.49
2018-04-28T14:32:36.003Z,98458.77
2018-04-28T14:35:05.179Z,98455.05
2018-04-28T14:37:34.257Z,98454.22
2018-04-28T14:40:03.168Z,98457.73
2018-04-28T14:42:41.396Z,98459.08
2018-04-28T14:45:10.637Z,98464.95
2018-04-28T14:47:39.680Z,98471.56
2018-04-28T14:50:09.235Z,98472.08
2018-04-28T14:52:39.000Z,98480.44
2018-04-28T14:55:08.135Z,98480.44
2018-04-28T14:57:37.898Z,98486.22
2018-04-28T15:00:07.303Z,98489.73
2018-04-28T15:02:35.922Z,98489.52
2018-04-28T15:05:05.602Z,98480.23
2018-04-28T15:07:35.009Z,98492.30
2018-04-28T15:10:04.636Z,98492.72
2018-04-28T15:12:34.215Z,98498.50
2018-04-28T15:15:03.267Z,98500.25
2018-04-28T15:17:32.959Z,98505.52
2018-04-28T15:20:02.491Z,98510.38
2018-04-28T15:22:32.056Z,98510.38
2018-04-28T15:25:01.798Z,98506.34
2018-04-28T15:27:31.015Z,98518.84
2018-04-28T15:30:00.871Z,98518.84
2018-04-28T15:32:30.457Z,98528.64
2018-04-28T15:35:00.456Z,98527.30
2018-04-28T15:37:30.163Z,98529.98
2018-04-28T15:39:59.916Z,98530.41
2018-04-28T15:42:29.515Z,98525.13
2018-04-28T15:44:58.752Z,98529.57
2018-04-28T15:47:28.729Z,98528.13
2018-04-28T15:49:57.803Z,98539.28
2018-04-28T15:52:27.219Z,98544.64
2018-04-28T15:54:56.161Z,98546.41
2018-04-28T15:57:25.574Z,98546.81
2018-04-28T15:59:54.412Z,98550.53
2018-04-28T16:02:23.719Z,98548.34
2018-04-28T16:04:52.703Z,98548.34
2018-04-28T16:07:21.922Z,98545.56
2018-04-28T16:09:51.820Z,98549.69
2018-04-28T16:12:20.661Z,98550.09
2018-04-28T16:14:50.417Z,98555.88
2018-04-28T16:17:19.901Z,98566.00
2018-04-28T16:19:49.725Z,98561.46
2018-04-28T16:22:19.157Z,98566.52
2018-04-28T16:24:48.847Z,98574.88
2018-04-28T16:27:18.027Z,98581.59
2018-04-28T16:29:48.260Z,98582.00
2018-04-28T16:32:17.325Z,98586.02
2018-04-28T16:34:46.576Z,98586.54
2018-04-28T16:37:15.886Z,98594.69
2018-04-28T16:39:44.874Z,98590.66
2018-04-28T16:42:14.409Z,98591.28
2018-04-28T16:44:43.776Z,98596.23
2018-04-28T16:47:13.216Z,98598.12
2018-04-28T16:49:42.762Z,98600.80
2018-04-28T16:52:12.508Z,98599.05
2018-04-28T16:54:41.688Z,98610.20
2018-04-28T16:57:11.537Z,98604.41
2018-04-28T16:59:41.381Z,98605.63
2018-04-28T17:02:10.705Z,98610.98
2018-04-28T17:04:39.690Z,98615.74
2018-04-28T17:07:09.277Z,98612.64
2018-04-28T17:09:38.874Z,98610.06
2018-04-28T17:12:08.319Z,98616.87
2018-04-28T17:14:37.319Z,98609.97
2018-04-28T17:17:06.571Z,98615.94
2018-04-28T17:19:36.091Z,98621.02
2018-04-28T17:22:06.514Z,98626.69
2018-04-28T17:24:35.513Z,98629.58
2018-04-28T17:27:05.114Z,98629.67
2018-04-28T17:29:34.124Z,98626.79
2018-04-28T17:32:03.782Z,98621.42
2018-04-28T17:34:32.988Z,98630.81
2018-04-28T17:37:02.747Z,98631.73
2018-04-28T17:39:31.865Z,98637.52
2018-04-28T17:42:01.167Z,98638.77
2018-04-28T17:44:30.828Z,98641.86
2018-04-28T17:46:59.949Z,98649.30
2018-04-28T17:49:29.125Z,98644.34
2018-04-28T17:51:58.166Z,98649.72
2018-04-28T17:54:27.698Z,98632.59
2018-04-28T17:56:56.993Z,98646.52
2018-04-28T17:59:26.734Z,98639.91
2018-04-28T18:01:56.074Z,98638.05
2018-04-28T18:04:25.337Z,98641.56
2018-04-28T18:06:54.960Z,98640.73
2018-04-28T18:09:24.303Z,98635.05
2018-04-28T18:11:53.812Z,98632.38
2018-04-28T18:14:23.850Z,98626.59
2018-04-28T18:16:53.366Z,98626.17
2018-04-28T18:19:23.170Z,98618.12
2018-04-28T18:21:53.047Z,98616.38
2018-04-28T18:24:22.499Z,98618.33
2018-04-28T18:26:51.607Z,98621.94
2018-04-28T18:29:20.623Z,98616.16
2018-04-28T18:31:50.296Z,98622.34
2018-04-28T18:34:19.457Z,98613.78
2018-04-28T18:36:48.453Z,98608.42
2018-04-28T18:39:17.379Z,98608.84
2018-04-28T18:41:46.460Z,98602.95
2018-04-28T18:44:15.820Z,98599.86
2018-04-28T18:46:45.329Z,98608.73
2018-04-28T18:49:14.753Z,98601.92
2018-04-28T18:51:43.687Z,98609.05
2018-04-28T18:54:13.282Z,98607.81
2018-04-28T18:56:42.853Z,98607.81
2018-04-28T18:59:11.966Z,98601.09
2018-04-28T19:01:41.338Z,98599.34
2018-04-28T19:04:10.454Z,98594.49
2018-04-28T19:06:40.270Z,98600.59
2018-04-28T19:09:09.928Z,98606.87
2018-04-28T19:11:38.566Z,98598.41
2018-04-28T19:14:07.701Z,98593.05
2018-04-28T19:16:36.836Z,98589.13
2018-04-28T19:19:05.640Z,98587.27
2018-04-28T19:21:35.099Z,98587.69
2018-04-28T19:24:04.771Z,98578.70
2018-04-28T19:26:33.931Z,98578.30
2018-04-28T19:29:02.845Z,98571.68
2018-04-28T19:31:32.080Z,98581.91
2018-04-28T19:34:01.423Z,98584.07
2018-04-28T19:36:31.259Z,98584.59
2018-04-28T19:39:00.255Z,98589.13
2018-04-28T19:41:29.680Z,98596.77
2018-04-28T19:43:59.810Z,98594.91
2018-04-28T19:46:29.753Z,98589.94
2018-04-28T19:48:58.917Z,98586.01
2018-04-28T19:51:28.203Z,98574.77
2018-04-28T19:53:57.812Z,98571.67
2018-04-28T19:56:26.653Z,98577.45
2018-04-28T19:58:56.411Z,98571.98
2018-04-28T20:01:25.644Z,98580.95
2018-04-28T20:03:55.063Z,98580.95
2018-04-28T20:06:25.209Z,98573.73
2018-04-28T20:08:54.574Z,98568.78
2018-04-28T20:11:24.283Z,98570.64
2018-04-28T20:13:54.401Z,98572.91
2018-04-28T20:16:23.421Z,98569.71
2018-04-28T20:18:52.474Z,98572.30
2018-04-28T20:21:21.425Z,98563.00
2018-04-28T20:24:02.171Z,98559.49
2018-04-28T20:26:31.958Z,98559.49
2018-04-28T20:29:01.307Z,98556.81
2018-04-28T20:31:30.250Z,98549.59
2018-04-28T20:33:59.460Z,98541.54
2018-04-28T20:36:28.907Z,98543.50
2018-04-28T20:38:58.618Z,98535.16
2018-04-28T20:41:28.039Z,98542.80
2018-04-28T20:43:57.232Z,98548.99
2018-04-28T20:46:26.259Z,98553.11
2018-04-28T20:48:55.697Z,98545.06
2018-04-28T20:51:25.298Z,98533.92
2018-04-28T20:53:54.362Z,98533.92
2018-04-28T20:56:23.663Z,98528.75
2018-04-28T20:58:53.172Z,98534.12
2018-04-28T21:01:22.217Z,98542.17
2018-04-28T21:03:51.868Z,98538.46
2018-04-28T21:06:20.919Z,98524.94
2018-04-28T21:08:50.179Z,98530.92
2018-04-28T21:11:19.491Z,98522.97
2018-04-28T21:13:48.714Z,98517.19
2018-04-28T21:16:18.245Z,98510.59
2018-04-28T21:18:47.569Z,98505.32
2018-04-28T21:21:16.724Z,98496.86
2018-04-28T21:23:46.147Z,98498.30
2018-04-28T21:26:15.436Z,98500.05
2018-04-28T21:28:45.510Z,98510.78
2018-04-28T21:31:14.598Z,98510.89
2018-04-28T21:33:44.603Z,98512.23
2018-04-28T21:36:13.853Z,98508.85
2018-04-28T21:38:42.750Z,98495.02
2018-04-28T21:41:12.338Z,98498.91
2018-04-28T21:43:41.689Z,98489.52
2018-04-28T21:46:10.790Z,98487.80
2018-04-28T21:48:40.298Z,98486.84
2018-04-28T21:51:10.509Z,98487.16
2018-04-28T21:53:39.426Z,98486.84
2018-04-28T21:56:09.110Z,98482.30
2018-04-28T21:58:38.579Z,98477.59
2018-04-28T22:01:08.133Z,98477.07
2018-04-28T22:03:37.361Z,98474.77
2018-04-28T22:06:06.967Z,98475.31
2018-04-28T22:08:36.564Z,98469.64
2018-04-28T22:11:06.038Z,98472.01
2018-04-28T22:13:35.623Z,98467.16
2018-04-28T22:16:05.264Z,98467.23
2018-04-28T22:18:34.026Z,98457.94
2018-04-28T22:21:03.616Z,98459.89
2018-04-28T22:23:32.857Z,98465.26
2018-04-28T22:26:01.802Z,98455.87
2018-04-28T22:28:30.531Z,98458.14
2018-04-28T22:30:59.545Z,98459.89
2018-04-28T22:33:29.078Z,98464.74
2018-04-28T22:35:58.545Z,98470.20
2018-04-28T22:38:27.850Z,98460.41
2018-04-28T22:40:56.988Z,98454.63
2018-04-28T22:43:26.311Z,98448.44
2018-04-28T22:45:55.397Z,98444.95
2018-04-28T22:48:24.520Z,98449.08
2018-04-28T22:50:54.202Z,98447.09
2018-04-28T22:53:23.081Z,98456.72
2018-04-28T22:55:52.631Z,98460.73
2018-04-28T22:58:21.916Z,98475.49
2018-04-28T23:00:50.815Z,98480.03
2018-04-28T23:03:20.380Z,98490.34
2018-04-28T23:05:49.871Z,98498.91
2018-04-28T23:08:19.147Z,98512.83
2018-04-28T23:10:48.205Z,98516.75
2018-04-28T23:13:17.262Z,98517.78
2018-04-28T23:15:45.995Z,98510.25
2018-04-28T23:18:15.312Z,98529.95
2018-04-28T23:20:44.886Z,98537.48
2018-04-28T23:23:13.965Z,98544.50
2018-04-28T23:25:43.799Z,98537.48
2018-04-28T23:28:12.980Z,98539.23
2018-04-28T23:30:42.220Z,98534.29
2018-04-28T23:33:11.548Z,98535.63
2018-04-28T23:35:41.063Z,98535.22
2018-04-28T23:38:10.092Z,98529.44
2018-04-28T23:40:39.178Z,98535.31
2018-04-28T23:43:08.201Z,98533.56
2018-04-28T23:45:37.880Z,98521.17
2018-04-28T23:48:07.516Z,98518.49
2018-04-28T23:50:36.310Z,98526.22
2018-04-28T23:53:05.953Z,98529.97
2018-04-28T23:55:34.903Z,98528.21
2018-04-28T23:58:05.062Z,98528.72
